Time;durP1;ratioP1;P1;durP2;ratioP2;P2;SDS_P1;SDS_P2;PMS_P1;PMS_P2;Temp;Humidity;BMP_temperature;BMP_pressure;BME280_temperature;BME280_humidity;BME280_pressure;Samples;Min_cycle;Max_cycle;Signal;HPM_P1;HPM_P2
2022/12/02 00:00:52;;;;;;;60.53;29.98;;;;;;;8.67;63.44;102513.03;5140477;28;20505;-67
2022/12/02 00:03:22;;;;;;;59.50;30.15;;;;;;;8.67;63.93;102511.19;5136312;28;20106;-66
2022/12/02 00:05:53;;;;;;;69.97;32.33;;;;;;;8.67;63.00;102518.38;5143040;28;20054;-65
2022/12/02 00:08:24;;;;;;;65.07;31.75;;;;;;;8.59;62.95;102496.97;5142675;28;20066;-66
2022/12/02 00:10:54;;;;;;;63.47;31.15;;;;;;;8.65;62.63;102515.06;5138026;28;20051;-64
2022/12/02 00:13:24;;;;;;;57.35;30.90;;;;;;;8.56;62.93;102500.84;5137826;28;20073;-65
2022/12/02 00:15:56;;;;;;;63.60;32.83;;;;;;;8.55;62.95;102495.66;5137190;28;20102;-64
2022/12/02 00:18:25;;;;;;;59.33;31.67;;;;;;;8.60;62.48;102498.66;5132759;28;20143;-64
2022/12/02 00:20:53;;;;;;;57.65;31.45;;;;;;;8.63;62.79;102511.72;5136940;28;20071;-64
2022/12/02 00:23:21;;;;;;;63.65;33.45;;;;;;;8.54;62.71;102492.13;5142408;28;20076;-65
2022/12/02 00:25:52;;;;;;;60.92;31.52;;;;;;;8.60;62.78;102495.97;5136922;28;20074;-64
2022/12/02 00:28:20;;;;;;;58.20;31.40;;;;;;;8.61;62.91;102503.00;5137544;28;20058;-65
2022/12/02 00:30:48;;;;;;;61.33;32.45;;;;;;;8.62;62.20;102497.47;5144173;27;20070;-64
2022/12/02 00:33:17;;;;;;;58.40;32.00;;;;;;;8.59;62.22;102489.78;5142891;27;20119;-64
2022/12/02 00:35:45;;;;;;;57.85;31.83;;;;;;;8.61;62.13;102489.63;5146621;27;20051;-65
2022/12/02 00:38:13;;;;;;;61.28;29.90;;;;;;;8.60;61.98;102486.09;5147301;27;20050;-65
2022/12/02 00:40:41;;;;;;;58.10;31.08;;;;;;;8.60;62.30;102475.38;5147395;27;20110;-65
2022/12/02 00:48:41;;;;;;;61.38;31.45;;;;;;;8.59;61.58;102480.91;5136612;27;20062;-65
2022/12/02 00:51:08;;;;;;;56.38;30.85;;;;;;;8.58;62.16;102479.22;5142314;27;20078;-65
2022/12/02 00:53:36;;;;;;;51.70;28.88;;;;;;;8.57;61.46;102474.88;5147305;27;20089;-65
2022/12/02 00:56:04;;;;;;;57.00;29.67;;;;;;;8.53;61.84;102476.22;5133555;27;20062;-65
2022/12/02 00:58:32;;;;;;;62.47;31.73;;;;;;;8.54;61.52;102481.41;5136811;27;20055;-64
2022/12/02 01:00:59;;;;;;;61.72;31.13;;;;;;;8.51;61.46;102479.06;5146903;27;20047;-64
2022/12/02 01:03:27;;;;;;;55.00;28.50;;;;;;;8.52;61.94;102466.50;5147457;27;20048;-65
2022/12/02 01:05:56;;;;;;;54.38;29.52;;;;;;;8.49;61.68;102465.00;5131991;27;20047;-64
2022/12/02 01:08:26;;;;;;;62.40;30.00;;;;;;;8.53;62.13;102477.06;5146455;27;20043;-64
2022/12/02 01:10:54;;;;;;;58.80;31.42;;;;;;;8.53;62.27;102476.22;5132344;27;20416;-65
2022/12/02 01:13:23;;;;;;;61.22;31.88;;;;;;;8.54;61.83;102470.69;5147212;27;20547;-64
2022/12/02 01:15:51;;;;;;;56.22;30.85;;;;;;;8.47;62.23;102461.66;5145653;27;20122;-64
2022/12/02 01:18:19;;;;;;;60.33;31.20;;;;;;;8.50;62.59;102465.84;5144253;27;20065;-65
2022/12/02 01:20:47;;;;;;;60.58;32.50;;;;;;;8.51;61.86;102468.34;5145899;27;20105;-64
2022/12/02 01:23:16;;;;;;;57.25;31.52;;;;;;;8.51;62.03;102467.50;5141187;27;20043;-64
2022/12/02 01:25:44;;;;;;;58.47;29.40;;;;;;;8.50;62.37;102464.00;5146080;27;20138;-65
2022/12/02 01:28:12;;;;;;;55.88;31.27;;;;;;;8.51;61.65;102463.00;5147791;27;20115;-65
2022/12/02 01:30:39;;;;;;;61.75;31.63;;;;;;;8.51;62.72;102465.66;5143738;27;20058;-64
2022/12/02 01:33:07;;;;;;;60.70;31.88;;;;;;;8.52;61.98;102464.66;5142649;27;20051;-65
2022/12/02 01:35:35;;;;;;;60.80;30.85;;;;;;;8.52;62.37;102469.19;5144729;27;20173;-65
2022/12/02 01:38:02;;;;;;;56.55;30.88;;;;;;;8.51;61.99;102468.34;5142303;27;20495;-65
2022/12/02 01:40:32;;;;;;;55.17;30.75;;;;;;;8.48;62.24;102469.53;5146436;27;20138;-64
2022/12/02 01:43:00;;;;;;;58.40;29.48;;;;;;;8.51;62.02;102467.50;5145204;27;20165;-64
2022/12/02 01:45:30;;;;;;;55.35;31.02;;;;;;;8.50;61.74;102463.16;5145631;27;20134;-64
2022/12/02 01:47:59;;;;;;;59.33;31.67;;;;;;;8.50;61.88;102472.03;5135764;27;20076;-65
2022/12/02 01:50:28;;;;;;;58.10;31.70;;;;;;;8.51;62.02;102465.66;5134274;27;20142;-65
2022/12/02 01:52:56;;;;;;;59.67;32.78;;;;;;;8.49;61.48;102467.69;5132248;27;20051;-65
2022/12/02 01:55:27;;;;;;;60.50;31.73;;;;;;;8.47;61.29;102469.69;5131890;27;20043;-65
2022/12/02 01:57:57;;;;;;;59.58;31.10;;;;;;;8.46;61.23;102462.66;5145071;27;20045;-65
2022/12/02 02:00:25;;;;;;;58.20;30.00;;;;;;;8.46;61.38;102462.66;5142739;27;20039;-66
2022/12/02 02:02:52;;;;;;;60.03;33.05;;;;;;;8.46;61.08;102463.50;5142080;27;20070;-65
2022/12/02 02:05:23;;;;;;;60.22;31.15;;;;;;;8.45;60.78;102452.94;5137857;27;20062;-64
2022/12/02 02:07:53;;;;;;;57.22;31.60;;;;;;;8.48;60.61;102464.16;5124967;27;20074;-64
2022/12/02 02:10:23;;;;;;;53.17;29.60;;;;;;;8.46;60.57;102460.81;5137273;27;20096;-64
2022/12/02 02:12:51;;;;;;;58.28;29.80;;;;;;;8.45;61.00;102460.97;5145908;27;20067;-65
2022/12/02 02:15:22;;;;;;;59.53;30.85;;;;;;;8.45;61.63;102459.13;5145021;27;20177;-65
2022/12/02 02:17:50;;;;;;;56.17;31.60;;;;;;;8.45;61.52;102463.66;5145661;27;20043;-65
2022/12/02 02:20:22;;;;;;;60.03;31.23;;;;;;;8.44;60.95;102456.63;5145132;27;20106;-65
2022/12/02 02:22:56;;;;;;;56.22;30.02;;;;;;;8.43;61.53;102461.16;5142739;27;20059;-65
2022/12/02 02:25:25;;;;;;;63.78;32.17;;;;;;;8.40;61.38;102464.16;5146012;27;20130;-65
2022/12/02 02:27:55;;;;;;;53.75;30.52;;;;;;;8.38;61.06;102455.47;5145989;27;20134;-65
2022/12/02 02:30:23;;;;;;;58.70;30.00;;;;;;;8.41;60.68;102455.13;5141223;27;20046;-65
2022/12/02 02:32:52;;;;;;;55.53;30.20;;;;;;;8.39;61.68;102458.97;5129755;27;20496;-65
2022/12/02 02:35:21;;;;;;;58.38;30.48;;;;;;;8.40;60.32;102450.78;5144613;27;20047;-64
2022/12/02 02:37:51;;;;;;;56.80;29.95;;;;;;;8.37;60.58;102453.78;5142663;27;20126;-65
2022/12/02 02:40:21;;;;;;;62.90;31.55;;;;;;;8.36;61.03;102453.94;5135145;27;20485;-65
2022/12/02 02:42:51;;;;;;;63.38;31.65;;;;;;;8.34;61.30;102453.28;5136847;27;20051;-66
2022/12/02 02:45:22;;;;;;;60.58;30.02;;;;;;;8.33;60.92;102452.44;5127722;27;20051;-64
2022/12/02 02:47:50;;;;;;;56.30;31.35;;;;;;;8.34;60.82;102445.25;5139358;27;20407;-65
2022/12/02 02:50:18;;;;;;;60.10;30.83;;;;;;;8.33;60.43;102443.56;5141443;27;20169;-65
2022/12/02 02:52:46;;;;;;;61.53;32.33;;;;;;;8.32;60.96;102444.53;5142819;27;20082;-66
2022/12/02 02:55:18;;;;;;;59.33;31.00;;;;;;;8.29;61.66;102434.16;5142462;27;20051;-64
2022/12/02 02:57:46;;;;;;;57.10;29.95;;;;;;;8.31;60.76;102433.00;5129722;27;20042;-65
2022/12/02 03:00:17;;;;;;;59.58;32.08;;;;;;;8.27;60.90;102434.34;5131437;27;20047;-65
2022/12/02 03:02:48;;;;;;;61.67;30.20;;;;;;;8.29;60.92;102437.69;5144839;27;20095;-65
2022/12/02 03:05:16;;;;;;;56.88;30.17;;;;;;;8.28;60.40;102433.31;5140174;27;20113;-65
2022/12/02 03:07:44;;;;;;;58.45;30.70;;;;;;;8.28;60.60;102427.97;5143635;27;20050;-64
2022/12/02 03:10:13;;;;;;;53.92;29.35;;;;;;;8.28;60.24;102435.16;5133899;27;20047;-65
2022/12/02 03:12:41;;;;;;;61.92;31.52;;;;;;;8.26;60.61;102421.94;5142936;27;20051;-65
2022/12/02 03:15:10;;;;;;;56.28;29.35;;;;;;;8.26;60.66;102429.16;5128628;27;20401;-64
2022/12/02 03:17:39;;;;;;;60.50;31.30;;;;;;;8.26;60.48;102421.94;5134703;27;20051;-65
2022/12/02 03:20:07;;;;;;;53.75;28.55;;;;;;;8.28;60.71;102419.09;5141795;27;20054;-65
2022/12/02 03:22:35;;;;;;;53.50;27.48;;;;;;;8.25;60.54;102408.72;5141360;27;20051;-66
2022/12/02 03:25:04;;;;;;;55.63;27.05;;;;;;;8.13;60.20;102394.84;5134749;27;20065;-65
2022/12/02 03:27:32;;;;;;;52.70;28.10;;;;;;;8.22;60.96;102412.56;5143751;27;20039;-65
2022/12/02 03:30:00;;;;;;;56.72;28.33;;;;;;;8.22;60.72;102407.22;5152836;27;20227;-65
2022/12/02 03:32:28;;;;;;;50.35;27.10;;;;;;;8.22;60.56;102414.41;5124202;28;20362;-65
2022/12/02 03:34:57;;;;;;;49.33;27.00;;;;;;;8.21;59.95;102421.63;5134947;27;20134;-65
2022/12/02 03:37:25;;;;;;;54.45;27.33;;;;;;;8.22;59.64;102419.78;5143469;27;20043;-65
2022/12/02 03:39:53;;;;;;;50.20;27.50;;;;;;;8.19;59.40;102420.09;5136131;27;20116;-65
2022/12/02 03:42:21;;;;;;;50.22;27.00;;;;;;;8.19;60.54;102425.47;5144595;27;20480;-64
2022/12/02 03:44:50;;;;;;;52.22;27.25;;;;;;;8.18;60.35;102423.78;5139433;28;20039;-65
2022/12/02 03:47:18;;;;;;;48.20;26.10;;;;;;;8.18;60.17;102415.75;5134037;28;20043;-65
2022/12/02 03:49:46;;;;;;;52.42;26.52;;;;;;;8.18;60.17;102407.72;5134981;28;20664;-65
2022/12/02 03:52:15;;;;;;;49.85;28.17;;;;;;;8.18;60.31;102403.19;5143430;28;20110;-66
2022/12/02 03:54:43;;;;;;;46.83;26.80;;;;;;;8.19;59.78;102401.34;5131644;28;20130;-65
2022/12/02 03:57:10;;;;;;;45.05;25.40;;;;;;;8.16;60.21;102403.38;5133683;28;20061;-66
2022/12/02 03:59:38;;;;;;;45.33;25.60;;;;;;;8.18;59.50;102399.69;5144313;28;20118;-65
2022/12/02 04:02:06;;;;;;;50.28;26.45;;;;;;;8.14;59.00;102397.34;5144184;28;20055;-65
2022/12/02 04:04:34;;;;;;;46.28;24.52;;;;;;;8.17;60.22;102388.13;5143535;27;20447;-64
2022/12/02 04:07:02;;;;;;;47.10;25.67;;;;;;;8.13;59.57;102376.09;5148083;27;20054;-64
2022/12/02 04:09:31;;;;;;;45.80;25.55;;;;;;;8.16;59.57;102381.94;5143473;27;20058;-64
2022/12/02 04:11:59;;;;;;;48.50;25.67;;;;;;;8.16;59.78;102384.63;5147388;27;20043;-64
2022/12/02 04:14:27;;;;;;;46.22;25.45;;;;;;;8.17;59.93;102382.78;5144599;27;20071;-64
2022/12/02 04:16:54;;;;;;;44.40;24.02;;;;;;;8.10;59.25;102373.75;5140372;27;20055;-64
2022/12/02 04:19:22;;;;;;;46.65;25.65;;;;;;;8.16;59.75;102389.97;5136181;27;20047;-65
2022/12/02 04:21:50;;;;;;;44.58;24.67;;;;;;;8.07;59.24;102374.09;5143480;27;20087;-64
2022/12/02 04:24:18;;;;;;;44.97;25.75;;;;;;;8.12;58.76;102385.97;5144827;27;20043;-64
2022/12/02 04:26:47;;;;;;;48.70;25.02;;;;;;;8.05;58.66;102390.31;5136705;27;20043;-65
2022/12/02 04:29:14;;;;;;;53.25;27.08;;;;;;;8.03;59.24;102388.81;5147512;27;20404;-65
2022/12/02 04:31:42;;;;;;;47.05;25.50;;;;;;;8.01;58.92;102374.75;5143467;27;20110;-65
2022/12/02 04:34:10;;;;;;;49.42;26.48;;;;;;;8.04;59.13;102385.13;5146096;27;20043;-65
2022/12/02 04:36:38;;;;;;;50.05;24.17;;;;;;;8.04;59.31;102383.28;5144122;27;20119;-65
2022/12/02 04:39:06;;;;;;;47.17;25.48;;;;;;;8.05;59.52;102376.94;5138554;27;20046;-65
2022/12/02 04:41:34;;;;;;;46.22;25.17;;;;;;;8.05;59.54;102379.59;5145563;27;20096;-65
2022/12/02 04:44:03;;;;;;;46.80;24.80;;;;;;;8.06;59.93;102372.41;5139354;27;20086;-66
2022/12/02 04:46:31;;;;;;;49.63;25.40;;;;;;;7.99;59.78;102374.09;5147172;27;20055;-65
2022/12/02 04:48:59;;;;;;;47.95;24.30;;;;;;;7.97;59.60;102376.94;5147166;27;20047;-65
2022/12/02 04:51:26;;;;;;;49.53;25.13;;;;;;;7.94;59.06;102374.59;5136847;27;20047;-66
2022/12/02 04:53:54;;;;;;;42.72;23.77;;;;;;;7.91;58.70;102372.25;5142717;27;20059;-66
2022/12/02 04:56:22;;;;;;;44.40;24.10;;;;;;;7.89;59.15;102374.25;5145709;27;20055;-66
2022/12/02 04:58:49;;;;;;;44.08;24.10;;;;;;;7.77;60.12;102367.53;5147422;27;20039;-66
2022/12/02 05:01:19;;;;;;;45.83;22.92;;;;;;;7.79;59.38;102374.41;5142309;27;20114;-66
2022/12/02 05:03:46;;;;;;;45.78;24.27;;;;;;;7.76;59.17;102365.88;5147756;27;20053;-66
2022/12/02 05:06:14;;;;;;;48.55;21.92;;;;;;;7.76;58.49;102366.72;5143726;27;20076;-66
2022/12/02 05:08:42;;;;;;;40.67;22.65;;;;;;;7.78;58.50;102370.06;5140394;27;20049;-66
2022/12/02 05:11:09;;;;;;;42.40;21.50;;;;;;;7.75;58.54;102351.66;5144357;27;20051;-65
2022/12/02 05:13:37;;;;;;;44.60;23.25;;;;;;;7.75;58.86;102357.00;5146445;27;20061;-66
2022/12/02 05:16:05;;;;;;;41.10;22.50;;;;;;;7.75;58.38;102359.69;5137645;27;20047;-66
2022/12/02 05:18:35;;;;;;;44.97;22.83;;;;;;;7.75;58.80;102351.66;5144817;27;20424;-66
2022/12/02 05:21:02;;;;;;;46.13;23.02;;;;;;;7.77;59.13;102351.50;5144512;27;20114;-66
2022/12/02 05:23:30;;;;;;;42.45;22.27;;;;;;;7.79;58.94;102352.16;5128625;27;20054;-66
2022/12/02 05:25:58;;;;;;;44.38;21.20;;;;;;;7.79;58.53;102350.31;5132532;27;20048;-66
2022/12/02 05:28:25;;;;;;;42.92;20.92;;;;;;;7.81;59.63;102350.16;5143509;27;20046;-64
2022/12/02 05:30:53;;;;;;;45.50;23.45;;;;;;;7.82;59.66;102346.47;5140603;27;20142;-65
2022/12/02 05:33:21;;;;;;;38.60;21.65;;;;;;;7.82;59.44;102343.78;5145831;27;20440;-65
2022/12/02 05:35:50;;;;;;;44.60;21.92;;;;;;;7.79;58.74;102349.47;5141451;27;20071;-64
2022/12/02 05:38:18;;;;;;;40.95;20.88;;;;;;;7.71;58.80;102354.84;5146888;27;20099;-65
2022/12/02 05:40:46;;;;;;;43.40;22.20;;;;;;;7.69;58.99;102356.84;5145800;27;20051;-65
2022/12/02 05:43:18;;;;;;;40.25;20.77;;;;;;;7.65;59.68;102358.16;5145679;27;20051;-65
2022/12/02 05:45:46;;;;;;;36.80;20.88;;;;;;;7.67;58.97;102348.13;5146358;27;20039;-65
2022/12/02 05:48:17;;;;;;;38.88;20.58;;;;;;;7.69;58.71;102343.47;5138655;27;20044;-65
2022/12/02 05:50:46;;;;;;;36.30;21.00;;;;;;;7.70;59.02;102334.44;5144015;27;20043;-65
2022/12/02 05:53:22;;;;;;;39.13;19.95;;;;;;;7.73;59.22;102336.78;5136233;27;20043;-65
2022/12/02 05:55:50;;;;;;;38.60;20.00;;;;;;;7.73;58.72;102342.97;5141025;27;20047;-65
2022/12/02 05:58:18;;;;;;;38.70;19.77;;;;;;;7.73;59.49;102331.41;5137347;27;20055;-65
2022/12/02 06:00:53;;;;;;;35.60;18.52;;;;;;;7.75;58.89;102343.63;5137891;27;20043;-66
2022/12/02 06:03:21;;;;;;;42.33;20.88;;;;;;;7.75;59.30;102345.47;5139792;27;20043;-65
2022/12/02 06:05:52;;;;;;;42.95;21.63;;;;;;;7.73;58.65;102342.97;5143231;27;20043;-65
2022/12/02 06:08:23;;;;;;;38.22;19.75;;;;;;;7.71;58.54;102350.31;5143956;27;20079;-65
2022/12/02 06:10:53;;;;;;;33.45;18.25;;;;;;;7.66;58.71;102339.28;5129438;27;20070;-65
2022/12/02 06:13:23;;;;;;;38.58;20.15;;;;;;;7.59;58.60;102340.94;5142554;27;20376;-67
2022/12/02 06:15:51;;;;;;;38.20;20.77;;;;;;;7.54;59.09;102353.13;5144649;27;20111;-66
2022/12/02 06:18:22;;;;;;;36.85;19.20;;;;;;;7.54;58.61;102345.13;5142521;27;20049;-67
2022/12/02 06:20:53;;;;;;;33.88;18.25;;;;;;;7.53;58.61;102349.63;5134741;27;20059;-66
2022/12/02 06:23:22;;;;;;;37.85;18.50;;;;;;;7.51;58.78;102352.47;5145267;27;20043;-65
2022/12/02 06:25:52;;;;;;;35.72;19.27;;;;;;;7.53;58.52;102354.97;5144102;27;20481;-65
2022/12/02 06:28:25;;;;;;;35.38;18.20;;;;;;;7.56;58.77;102356.47;5139403;27;20570;-66
2022/12/02 06:30:56;;;;;;;36.88;19.05;;;;;;;7.57;58.92;102342.09;5135089;27;20048;-63
2022/12/02 06:33:28;;;;;;;33.72;18.10;;;;;;;7.58;58.80;102343.78;5137747;27;20238;-64
2022/12/02 06:35:57;;;;;;;35.50;17.88;;;;;;;7.60;58.51;102339.09;5135608;27;20057;-64
2022/12/02 06:38:33;;;;;;;37.70;18.23;;;;;;;7.62;58.84;102337.09;5146010;27;20626;-63
2022/12/02 06:41:14;;;;;;;34.55;18.30;;;;;;;7.62;59.05;102347.78;5141516;27;20042;-64
2022/12/02 06:45:03;;;;;;;34.72;17.63;;;;;;;7.63;58.73;102341.44;5142607;27;20118;-66
2022/12/02 06:46:33;;;;;;;36.95;19.13;;;;;;;7.57;58.80;102348.28;5141634;27;20848;-65
2022/12/02 06:49:13;;;;;;;35.35;17.80;;;;;;;7.55;58.34;102342.28;5138649;27;20047;-65
2022/12/02 06:51:40;;;;;;;33.72;16.58;;;;;;;7.57;58.48;102348.28;5139277;27;20047;-64
2022/12/02 06:54:21;;;;;;;35.80;17.89;;;;;;;7.59;59.70;102342.78;5048636;27;10000562;-65
2022/12/02 06:56:50;;;;;;;37.92;17.75;;;;;;;7.60;59.14;102333.75;5132406;27;20331;-64
2022/12/02 06:59:21;;;;;;;38.97;18.52;;;;;;;7.61;59.05;102340.78;5138621;27;20567;-65
2022/12/02 07:01:53;;;;;;;37.55;19.08;;;;;;;7.62;59.06;102329.06;5137889;27;20047;-66
2022/12/02 07:04:34;;;;;;;36.58;17.65;;;;;;;7.62;58.38;102329.91;5135974;27;20047;-65
2022/12/02 07:07:14;;;;;;;35.92;17.70;;;;;;;7.60;58.43;102331.06;5140655;27;20066;-65
2022/12/02 07:09:46;;;;;;;34.85;17.75;;;;;;;7.62;58.16;102345.97;5140063;27;20041;-65
2022/12/02 07:12:16;;;;;;;37.92;17.75;;;;;;;7.59;59.19;102348.97;5130524;27;20078;-65
2022/12/02 07:14:47;;;;;;;37.08;18.13;;;;;;;7.61;58.76;102343.44;5135129;27;20602;-60
2022/12/02 07:17:20;;;;;;;35.83;17.67;;;;;;;7.48;58.78;102341.25;5140094;27;20152;-62
2022/12/02 07:19:50;;;;;;;34.40;17.33;;;;;;;7.43;59.21;102343.59;5141071;27;20057;-62
2022/12/02 07:22:20;;;;;;;32.83;16.88;;;;;;;7.36;59.01;102348.75;5135500;27;20067;-62
2022/12/02 07:24:54;;;;;;;33.08;17.63;;;;;;;7.36;59.54;102351.44;5141517;27;20551;-62
2022/12/02 07:27:25;;;;;;;31.98;17.00;;;;;;;7.35;59.80;102348.91;5140935;27;20062;-62
2022/12/02 07:29:54;;;;;;;33.72;17.40;;;;;;;7.25;58.60;102349.06;5134866;27;20060;-64
2022/12/02 07:32:22;;;;;;;32.35;17.15;;;;;;;7.21;59.14;102352.22;5135583;27;20371;-65
2022/12/02 07:34:50;;;;;;;30.40;15.82;;;;;;;7.20;59.45;102351.38;5132168;27;20061;-64
2022/12/02 07:37:18;;;;;;;32.92;16.70;;;;;;;7.21;59.38;102341.53;5129111;27;20043;-64
2022/12/02 07:39:46;;;;;;;33.10;17.13;;;;;;;7.24;59.40;102351.91;5129662;27;20039;-64
2022/12/02 07:42:16;;;;;;;36.58;18.00;;;;;;;7.22;59.25;102337.84;5135642;27;20043;-65
2022/12/02 07:44:43;;;;;;;34.05;16.45;;;;;;;7.27;59.76;102352.41;5136378;27;20374;-64
2022/12/02 07:47:11;;;;;;;28.38;15.32;;;;;;;7.27;59.32;102344.38;5136559;27;20054;-64
2022/12/02 07:49:39;;;;;;;29.27;16.35;;;;;;;7.18;59.77;102327.50;5134274;27;20047;-65
2022/12/02 07:52:06;;;;;;;33.70;17.65;;;;;;;7.29;59.78;102346.91;5134183;28;20039;-64
2022/12/02 07:54:34;;;;;;;30.08;15.98;;;;;;;7.30;59.51;102346.75;5138097;28;20065;-64
2022/12/02 07:57:02;;;;;;;32.20;16.33;;;;;;;7.31;59.31;102344.91;5136611;28;20050;-64
2022/12/02 07:59:31;;;;;;;32.53;15.40;;;;;;;7.24;59.48;102339.38;5139384;28;20407;-64
2022/12/02 08:01:59;;;;;;;33.20;16.55;;;;;;;7.27;59.94;102347.06;5137993;28;20055;-64
2022/12/02 08:04:26;;;;;;;30.05;14.23;;;;;;;7.28;59.18;102343.38;5139860;28;20167;-64
2022/12/02 08:06:54;;;;;;;30.90;15.20;;;;;;;7.28;58.94;102338.03;5134414;28;20058;-67
2022/12/02 08:09:22;;;;;;;37.92;15.82;;;;;;;7.26;59.55;102348.06;5138863;27;20059;-67
2022/12/02 08:11:50;;;;;;;34.30;15.98;;;;;;;7.25;59.06;102342.88;5137317;27;20060;-67
2022/12/02 08:14:17;;;;;;;30.85;16.15;;;;;;;7.25;59.71;102346.38;5140662;28;20043;-64
2022/12/02 08:16:46;;;;;;;27.50;14.82;;;;;;;7.18;59.77;102351.56;5140010;27;20564;-65
2022/12/02 08:19:14;;;;;;;33.30;16.30;;;;;;;7.18;60.00;102343.53;5142326;28;20070;-65
2022/12/02 08:21:42;;;;;;;32.15;16.25;;;;;;;7.11;60.32;102347.03;5140606;28;20048;-64
2022/12/02 08:24:10;;;;;;;33.20;16.92;;;;;;;7.17;59.70;102343.69;5141004;28;20051;-64
2022/12/02 08:26:37;;;;;;;32.10;17.02;;;;;;;7.21;60.21;102346.88;5126798;28;20122;-64
2022/12/02 08:29:05;;;;;;;39.47;17.30;;;;;;;7.18;60.53;102346.19;5140185;28;20047;-65
2022/12/02 08:31:33;;;;;;;31.52;15.55;;;;;;;7.18;60.42;102350.72;5141743;28;20123;-65
2022/12/02 08:34:02;;;;;;;30.25;15.23;;;;;;;7.19;59.75;102344.38;5138178;28;20043;-65
2022/12/02 08:36:34;;;;;;;32.80;16.00;;;;;;;7.15;60.33;102338.50;5138939;28;20047;-65
2022/12/02 08:39:04;;;;;;;29.30;15.65;;;;;;;7.16;59.86;102348.19;5130414;28;20051;-64
2022/12/02 08:41:32;;;;;;;31.00;16.00;;;;;;;7.22;60.57;102343.22;5140413;28;20279;-64
2022/12/02 08:44:00;;;;;;;33.35;15.40;;;;;;;7.30;59.87;102349.41;5142916;28;20055;-64
2022/12/02 08:46:29;;;;;;;32.40;16.05;;;;;;;7.48;60.00;102347.44;5132883;28;20075;-68
2022/12/02 08:48:57;;;;;;;31.95;15.32;;;;;;;7.58;58.42;102339.25;5139145;28;20043;-64
2022/12/02 08:51:26;;;;;;;31.90;15.55;;;;;;;7.62;58.79;102326.41;5141811;27;20055;-64
2022/12/02 08:53:54;;;;;;;31.63;15.80;;;;;;;7.80;58.00;102338.63;5142237;27;20063;-64
2022/12/02 08:56:21;;;;;;;29.88;15.38;;;;;;;7.97;58.18;102326.06;5145743;27;20047;-64
2022/12/02 08:58:49;;;;;;;30.05;15.23;;;;;;;8.12;57.94;102336.94;5143949;27;20046;-65
2022/12/02 09:01:17;;;;;;;31.33;16.48;;;;;;;8.29;56.59;102333.22;5139577;27;20547;-63
2022/12/02 09:03:45;;;;;;;29.88;14.65;;;;;;;8.41;56.55;102334.56;5140547;27;20500;-64
2022/12/02 09:06:12;;;;;;;30.23;14.98;;;;;;;8.57;56.14;102336.38;5138635;27;20535;-64
2022/12/02 09:08:41;;;;;;;30.15;15.68;;;;;;;8.74;56.18;102337.94;5145044;27;20492;-64
2022/12/02 09:11:10;;;;;;;28.90;14.13;;;;;;;8.85;55.12;102327.84;5145059;27;20142;-64
2022/12/02 09:13:37;;;;;;;30.30;15.23;;;;;;;8.89;55.31;102319.28;5142083;27;20047;-63
2022/12/02 09:16:06;;;;;;;27.08;15.48;;;;;;;8.96;54.72;102336.34;5145619;27;20129;-62
2022/12/02 09:18:34;;;;;;;28.75;14.02;;;;;;;9.03;54.87;102339.16;5143072;27;20043;-65
2022/12/02 09:21:02;;;;;;;26.45;14.00;;;;;;;9.03;55.25;102336.50;5142112;27;20102;-66
2022/12/02 09:23:29;;;;;;;27.23;13.52;;;;;;;8.96;55.62;102336.34;5144529;27;20221;-66
2022/12/02 09:25:58;;;;;;;26.38;13.77;;;;;;;8.80;55.87;102342.63;5146607;27;20057;-66
2022/12/02 09:28:26;;;;;;;25.48;13.43;;;;;;;8.62;56.18;102335.84;5138778;27;20054;-65
2022/12/02 09:30:54;;;;;;;27.45;14.40;;;;;;;8.54;56.65;102338.56;5142881;27;20058;-67
2022/12/02 09:33:22;;;;;;;26.40;14.35;;;;;;;8.40;57.49;102340.94;5145750;27;20050;-65
2022/12/02 09:35:50;;;;;;;26.48;13.60;;;;;;;8.30;57.19;102336.72;5136997;27;20052;-65
2022/12/02 09:38:18;;;;;;;24.98;13.00;;;;;;;8.16;58.26;102340.94;5142916;27;20170;-66
2022/12/02 09:40:47;;;;;;;25.23;12.07;;;;;;;8.11;58.47;102341.44;5142982;27;20043;-66
2022/12/02 09:43:16;;;;;;;26.33;12.75;;;;;;;8.02;58.67;102334.44;5137143;27;20052;-65
2022/12/02 09:45:44;;;;;;;23.38;12.38;;;;;;;7.95;59.37;102327.25;5138982;27;20058;-65
2022/12/02 09:48:12;;;;;;;20.77;11.20;;;;;;;7.96;59.01;102313.69;5144563;27;20047;-65
2022/12/02 09:50:40;;;;;;;21.33;11.20;;;;;;;8.08;58.46;102319.53;5142072;27;20556;-65
2022/12/02 09:53:08;;;;;;;20.63;11.52;;;;;;;8.20;58.33;102317.34;5143473;27;20054;-65
2022/12/02 09:55:36;;;;;;;22.05;11.27;;;;;;;8.34;57.75;102305.94;5139311;27;20051;-65
2022/12/02 09:58:14;;;;;;;24.58;11.77;;;;;;;8.50;57.56;102313.09;5145703;27;20063;-65
2022/12/02 10:00:43;;;;;;;21.13;10.95;;;;;;;8.66;57.09;102315.72;5138393;27;20081;-65
2022/12/02 10:03:15;;;;;;;23.63;10.90;;;;;;;8.71;56.89;102316.03;5144530;27;20047;-66
2022/12/02 10:05:46;;;;;;;21.40;10.90;;;;;;;8.66;56.59;102310.38;5135303;27;20150;-67
2022/12/02 10:08:21;;;;;;;29.73;11.65;;;;;;;8.73;56.75;102311.31;5130857;27;20164;-66
2022/12/02 10:10:49;;;;;;;23.70;11.60;;;;;;;8.86;56.35;102313.44;5143203;27;20100;-66
2022/12/02 10:13:19;;;;;;;20.63;9.98;;;;;;;8.86;56.17;102311.59;5138000;27;20088;-66
2022/12/02 10:15:48;;;;;;;23.33;11.45;;;;;;;8.94;55.90;102305.38;5143089;27;20486;-66
2022/12/02 10:18:18;;;;;;;20.08;10.32;;;;;;;9.01;55.89;102309.84;5141878;27;20043;-66
2022/12/02 10:20:45;;;;;;;25.25;11.82;;;;;;;9.01;55.57;102315.22;5142311;27;20504;-66
2022/12/02 10:23:16;;;;;;;25.65;11.45;;;;;;;8.88;55.70;102298.84;5144859;27;20141;-66
2022/12/02 10:25:45;;;;;;;23.98;11.95;;;;;;;8.91;56.50;102314.59;5141298;27;20085;-66
2022/12/02 10:28:22;;;;;;;22.00;11.02;;;;;;;8.82;56.04;102304.91;5136404;27;20244;-66
2022/12/02 10:30:52;;;;;;;;;;;;;;;8.88;56.29;102312.25;5144638;27;20058;-64
2022/12/02 10:33:25;;;;;;;23.88;11.77;;;;;;;9.01;56.10;102311.69;5139708;27;19924;-64
2022/12/02 10:35:55;;;;;;;22.02;10.65;;;;;;;9.08;55.86;102300.09;5142180;27;20630;-66
2022/12/02 10:38:36;;;;;;;21.67;11.32;;;;;;;9.02;56.13;102295.44;5140536;27;20043;-64
2022/12/02 10:41:23;;;;;;;23.38;11.52;;;;;;;9.04;55.81;102288.03;5136600;27;20058;-64
2022/12/02 10:44:13;;;;;;;20.45;11.55;;;;;;;9.07;55.64;102290.38;5143966;27;20062;-64
2022/12/02 10:46:42;;;;;;;26.38;11.63;;;;;;;8.92;56.23;102292.13;5141590;27;20043;-64
2022/12/02 10:49:33;;;;;;;24.85;11.43;;;;;;;8.79;56.67;102300.75;5156196;27;20057;-65
2022/12/02 10:52:07;;;;;;;24.60;12.68;;;;;;;8.66;56.75;102296.97;5132207;27;20039;-64
2022/12/02 10:54:38;;;;;;;27.90;13.30;;;;;;;8.49;57.78;102301.56;5138828;27;20527;-65
2022/12/02 10:57:16;;;;;;;29.83;13.38;;;;;;;8.28;58.13;102277.13;5145458;27;20047;-64
2022/12/02 10:59:43;;;;;;;28.85;14.02;;;;;;;8.18;58.80;102292.56;5152348;27;20127;-64
2022/12/02 11:02:19;;;;;;;34.10;14.70;;;;;;;8.09;58.54;102289.91;5148973;27;20058;-65
2022/12/02 11:04:49;;;;;;;34.47;14.73;;;;;;;8.04;58.88;102281.53;5133284;27;20047;-62
2022/12/02 11:07:20;;;;;;;31.00;14.98;;;;;;;8.00;58.91;102279.38;5139831;27;20043;-64
2022/12/02 11:09:55;;;;;;;34.38;14.05;;;;;;;7.92;59.41;102269.53;5136439;27;20043;-64
2022/12/02 11:12:35;;;;;;;35.58;15.70;;;;;;;7.89;59.98;102283.25;5142382;27;20217;-64
2022/12/02 11:15:35;;;;;;;37.80;16.00;;;;;;;7.87;59.54;102281.75;5143381;27;20055;-63
2022/12/02 11:18:04;;;;;;;34.80;15.77;;;;;;;7.84;59.61;102265.00;5131044;27;20047;-63
2022/12/02 11:20:42;;;;;;;37.70;15.77;;;;;;;7.80;59.53;102270.88;5138730;27;21345;-62
2022/12/02 11:23:23;;;;;;;28.35;14.15;;;;;;;7.91;59.48;102269.69;5139437;27;20053;-66
2022/12/02 11:25:56;;;;;;;41.60;15.77;;;;;;;8.02;58.99;102267.50;5139423;27;20050;-68
2022/12/02 11:28:46;;;;;;;35.33;15.65;;;;;;;8.18;58.44;102271.13;5143672;27;20071;-64
2022/12/02 11:31:32;;;;;;;32.50;15.60;;;;;;;8.31;58.32;102266.91;5139014;27;20201;-64
2022/12/02 11:34:39;;;;;;;45.33;18.08;;;;;;;8.29;57.92;102252.03;5135150;27;20048;-64